Au Gres, Michigan
Current Conditions -  °F | °C
As of 1:34 PM on Saturday 25 Oct 2014 (Local Time) from KOSC Reporting Station
Clear Clear  
Wind Chill: 66°   Ceiling: Unl
Heat Index: 66°   Visibility: 10mi
Dew Point: 39°   Wind: 22mph
Humidity: 37%   Direction: 270°W
Pressure: 29.63"   Gusts: 29mph
Location:  44.05°N, 83.7°W
Report Text: KOSC 251734Z AUTO 27019G25KT 10SM CLR 18/03 A2963 RMK AO2 T01910041
Loading
Personal Weather Stations






























Interactive Weather Map
Tropical Storm Tracking
New forecast layout! Learn more

10-Day Weather Forecast

Advertisements
Track Severe Weather on mobile